Time;durP1;ratioP1;P1;durP2;ratioP2;P2;SDS_P1;SDS_P2;PMS_P1;PMS_P2;Temp;Humidity;BMP_temperature;BMP_pressure;BME280_temperature;BME280_humidity;BME280_pressure;Samples;Min_cycle;Max_cycle;Signal;HPM_P1;HPM_P2
2021/11/21 00:01:34;;;;;;;1999.90;999.90;;;;;;;4.17;58.18;100834.13;4901005;28;96913;-72
2021/11/21 00:04:04;;;;;;;1999.90;999.90;;;;;;;4.18;58.19;100825.44;4932944;28;97489;-71
2021/11/21 00:06:32;;;;;;;1999.90;999.90;;;;;;;4.19;58.34;100824.59;4907672;28;100705;-72
2021/11/21 00:09:00;;;;;;;1999.90;999.90;;;;;;;4.18;58.18;100820.16;4927397;28;97877;-69
2021/11/21 00:11:28;;;;;;;1999.90;999.90;;;;;;;4.15;58.24;100819.13;4924196;28;97545;-70
2021/11/21 00:13:58;;;;;;;1999.90;999.90;;;;;;;4.12;58.18;100814.59;4929727;28;96849;-70
2021/11/21 00:16:26;;;;;;;1999.90;999.90;;;;;;;4.11;58.14;100807.53;4909080;28;99474;-69
2021/11/21 00:18:54;;;;;;;1999.90;999.90;;;;;;;4.11;58.31;100822.44;4931879;28;98025;-70
2021/11/21 00:21:23;;;;;;;1999.90;999.90;;;;;;;4.10;58.23;100810.97;4928259;28;97693;-71
2021/11/21 00:23:51;;;;;;;1999.90;999.90;;;;;;;4.09;58.17;100809.19;4912278;28;96796;-70
2021/11/21 00:26:20;;;;;;;1999.90;999.90;;;;;;;4.07;58.00;100812.56;4913855;28;99348;-71
2021/11/21 00:28:49;;;;;;;1999.90;999.90;;;;;;;4.07;58.19;100805.59;4931001;28;97262;-70
2021/11/21 00:31:18;;;;;;;1999.90;999.90;;;;;;;4.06;58.20;100797.63;4928541;28;97137;-69
2021/11/21 00:33:47;;;;;;;1999.90;999.90;;;;;;;4.06;58.08;100806.41;4925203;28;97768;-70
2021/11/21 00:36:15;;;;;;;1999.90;999.90;;;;;;;4.05;57.79;100809.88;4914708;28;97691;-70
2021/11/21 00:38:44;;;;;;;1999.90;999.90;;;;;;;4.05;58.10;100798.44;4907641;28;99429;-69
2021/11/21 00:41:12;;;;;;;1999.90;999.90;;;;;;;4.03;58.25;100801.00;4935989;28;97196;-69
2021/11/21 00:43:41;;;;;;;1999.90;999.90;;;;;;;4.02;58.21;100812.34;4931117;28;97102;-70
2021/11/21 00:46:09;;;;;;;1999.90;999.90;;;;;;;3.99;58.13;100791.16;4929397;28;98911;-72
2021/11/21 00:48:38;;;;;;;1999.90;999.90;;;;;;;4.01;58.17;100796.47;4912759;28;98125;-72
2021/11/21 00:51:06;;;;;;;1999.90;999.90;;;;;;;4.01;57.97;100807.00;4909087;28;98043;-72
2021/11/21 00:53:36;;;;;;;1999.90;999.90;;;;;;;3.98;58.05;100801.59;4931243;28;97888;-72
2021/11/21 00:56:09;;;;;;;1999.90;999.90;;;;;;;3.95;58.01;100799.72;4928827;28;98911;-71
2021/11/21 00:58:38;;;;;;;1999.90;999.90;;;;;;;3.92;58.10;100802.22;4932304;28;98972;-72
2021/11/21 01:01:07;;;;;;;1999.90;999.90;;;;;;;3.88;57.93;100797.63;4930252;28;97718;-73
2021/11/21 01:03:36;;;;;;;1999.90;999.90;;;;;;;3.86;58.12;100796.66;4922028;28;97019;-73
2021/11/21 01:06:04;;;;;;;1999.90;999.90;;;;;;;3.85;58.25;100800.13;4933645;28;98184;-72
2021/11/21 01:08:33;;;;;;;1999.90;999.90;;;;;;;3.85;58.21;100780.78;4909795;28;98186;-73
2021/11/21 01:11:06;;;;;;;1999.90;999.90;;;;;;;3.83;58.08;100793.88;4930282;28;97404;-71
2021/11/21 01:13:35;;;;;;;1999.90;999.90;;;;;;;3.83;58.07;100795.59;4905049;28;97258;-71
2021/11/21 01:16:03;;;;;;;1999.90;999.90;;;;;;;3.79;58.11;100789.28;4908723;28;99756;-71
2021/11/21 01:18:33;;;;;;;1999.90;999.90;;;;;;;3.78;57.96;100776.97;4930157;28;99146;-70
2021/11/21 01:21:02;;;;;;;1999.90;999.90;;;;;;;3.78;58.19;100771.72;4927486;28;97656;-70
2021/11/21 01:23:30;;;;;;;1999.90;999.90;;;;;;;3.76;58.24;100765.47;4936877;28;97737;-71
2021/11/21 01:25:58;;;;;;;1999.90;999.90;;;;;;;3.78;58.19;100755.91;4915532;28;100326;-71
2021/11/21 01:28:28;;;;;;;1999.90;999.90;;;;;;;3.76;58.43;100760.19;4912478;28;100697;-72
2021/11/21 01:30:56;;;;;;;1999.90;999.90;;;;;;;3.76;58.18;100752.31;4932620;28;97259;-70
2021/11/21 01:33:26;;;;;;;1999.90;999.90;;;;;;;3.77;58.24;100748.84;4930532;28;96883;-71
2021/11/21 01:35:54;;;;;;;1999.90;999.90;;;;;;;3.77;58.02;100753.22;4930096;28;97327;-73
2021/11/21 01:38:22;;;;;;;1999.90;999.90;;;;;;;3.76;58.12;100751.41;4910086;28;100017;-71
2021/11/21 01:40:51;;;;;;;1999.90;999.90;;;;;;;3.70;58.14;100733.59;4927771;28;97898;-73
2021/11/21 01:43:19;;;;;;;1999.90;999.90;;;;;;;3.68;58.39;100729.97;4936535;28;97838;-70
2021/11/21 01:45:48;;;;;;;1999.90;999.90;;;;;;;3.68;57.91;100726.44;4926207;28;97524;-71
2021/11/21 01:48:17;;;;;;;1999.90;999.90;;;;;;;3.65;58.38;100729.84;4909013;28;99223;-71
2021/11/21 01:50:46;;;;;;;1999.90;999.90;;;;;;;3.60;58.17;100715.53;4910931;28;97604;-72
2021/11/21 01:53:15;;;;;;;1999.90;999.90;;;;;;;3.59;58.26;100712.81;4914194;28;98111;-71
2021/11/21 01:55:46;;;;;;;1999.90;999.90;;;;;;;3.61;57.93;100714.69;4920029;28;99460;-70
2021/11/21 01:58:16;;;;;;;1999.90;999.90;;;;;;;3.60;58.18;100706.72;4932256;28;97621;-71
2021/11/21 02:00:46;;;;;;;1999.90;999.90;;;;;;;3.58;58.46;100697.88;4913951;28;97952;-71
2021/11/21 02:03:17;;;;;;;1999.90;999.90;;;;;;;3.59;58.44;100699.66;4916024;28;98365;-72
2021/11/21 02:05:46;;;;;;;1999.90;999.90;;;;;;;3.58;58.19;100693.50;4927660;28;97933;-71
2021/11/21 02:08:14;;;;;;;1999.90;999.90;;;;;;;3.58;58.15;100685.63;4915326;28;99515;-71
2021/11/21 02:10:42;;;;;;;1999.90;999.90;;;;;;;3.59;58.02;100692.66;4925695;28;97769;-72
2021/11/21 02:13:11;;;;;;;1999.90;999.90;;;;;;;3.55;58.29;100682.81;4918155;28;98290;-71
2021/11/21 02:15:44;;;;;;;1999.90;999.90;;;;;;;3.54;58.16;100691.56;4930133;28;97728;-71
2021/11/21 02:18:13;;;;;;;1999.90;999.90;;;;;;;3.51;58.13;100682.63;4930123;28;97509;-71
2021/11/21 02:20:48;;;;;;;1999.90;999.90;;;;;;;3.49;58.05;100674.66;4909184;28;97371;-71
2021/11/21 02:23:17;;;;;;;1999.90;999.90;;;;;;;3.49;57.96;100676.38;4925523;28;98150;-71
2021/11/21 02:25:45;;;;;;;1999.90;999.90;;;;;;;3.48;57.86;100667.59;4929352;28;96814;-71
2021/11/21 02:28:14;;;;;;;1999.90;999.90;;;;;;;3.49;57.86;100674.66;4908933;28;98720;-71
2021/11/21 02:30:42;;;;;;;1999.90;999.90;;;;;;;3.46;57.85;100666.59;4932976;28;97214;-71
2021/11/21 02:33:13;;;;;;;1999.90;999.90;;;;;;;3.42;57.89;100654.16;4926057;28;97577;-71
2021/11/21 02:35:42;;;;;;;1999.90;999.90;;;;;;;3.47;57.89;100654.38;4923220;28;99420;-73
2021/11/21 02:38:14;;;;;;;1999.90;999.90;;;;;;;3.45;58.26;100664.81;4912529;28;98565;-70
2021/11/21 02:40:43;;;;;;;1999.90;999.90;;;;;;;3.48;58.05;100666.72;4934572;28;98073;-73
2021/11/21 02:43:11;;;;;;;1999.90;999.90;;;;;;;3.49;58.01;100663.22;4928140;28;97222;-73
2021/11/21 02:45:39;;;;;;;1999.90;999.90;;;;;;;3.49;57.92;100656.25;4929095;28;97990;-72
2021/11/21 02:48:07;;;;;;;1999.90;999.90;;;;;;;3.49;58.00;100645.72;4925704;28;97649;-72
2021/11/21 02:50:36;;;;;;;1999.90;999.90;;;;;;;3.51;58.05;100649.34;4909962;28;97781;-73
2021/11/21 02:53:04;;;;;;;1999.90;999.90;;;;;;;3.50;57.96;100646.59;4924380;28;97451;-73
2021/11/21 02:55:35;;;;;;;1999.90;999.90;;;;;;;3.48;57.70;100638.66;4911050;28;97758;-72
2021/11/21 02:58:05;;;;;;;1999.90;999.90;;;;;;;3.48;57.92;100628.13;4927771;28;100586;-74
2021/11/21 03:00:34;;;;;;;1999.90;999.90;;;;;;;3.50;58.18;100633.44;4913727;28;97736;-73
2021/11/21 03:03:03;;;;;;;1999.90;999.90;;;;;;;3.49;58.10;100626.41;4910767;28;97089;-72
2021/11/21 03:05:33;;;;;;;1999.90;999.90;;;;;;;3.49;58.16;100619.44;4894939;28;100865;-71
2021/11/21 03:08:02;;;;;;;1999.90;999.90;;;;;;;3.50;57.94;100615.94;4913897;28;99819;-73
2021/11/21 03:10:31;;;;;;;1999.90;999.90;;;;;;;3.52;57.92;100621.28;4929842;28;97759;-72
2021/11/21 03:13:03;;;;;;;1999.90;999.90;;;;;;;3.51;57.99;100602.00;4909510;28;97764;-73
2021/11/21 03:15:32;;;;;;;1999.90;999.90;;;;;;;3.53;58.03;100599.41;4903088;28;98247;-71
2021/11/21 03:18:01;;;;;;;1999.90;999.90;;;;;;;3.55;57.88;100598.63;4929108;28;99115;-72
2021/11/21 03:20:31;;;;;;;1999.90;999.90;;;;;;;3.54;58.09;100601.22;4897160;28;97390;-71
2021/11/21 03:23:00;;;;;;;1999.90;999.90;;;;;;;3.55;58.00;100596.00;4932257;28;97141;-72
2021/11/21 03:25:28;;;;;;;1999.90;999.90;;;;;;;3.54;57.92;100599.50;4912330;28;100581;-71
2021/11/21 03:27:57;;;;;;;1999.90;999.90;;;;;;;3.54;58.05;100596.84;4934079;28;97856;-72
2021/11/21 03:30:26;;;;;;;1999.90;999.90;;;;;;;3.51;57.84;100607.25;4914140;28;97451;-71
2021/11/21 03:32:54;;;;;;;1999.90;999.90;;;;;;;3.51;58.11;100612.50;4928329;28;97314;-72
2021/11/21 03:35:24;;;;;;;1999.90;999.90;;;;;;;3.50;57.76;100594.91;4906660;28;99257;-72
2021/11/21 03:37:52;;;;;;;1999.90;999.90;;;;;;;3.49;58.10;100587.88;4906329;28;100079;-72
2021/11/21 03:40:20;;;;;;;1999.90;999.90;;;;;;;3.49;57.92;100587.88;4915085;28;97279;-71
2021/11/21 03:42:49;;;;;;;1999.90;999.90;;;;;;;3.48;57.95;100586.03;4928574;28;97524;-72
2021/11/21 03:45:18;;;;;;;1999.90;999.90;;;;;;;3.48;57.99;100578.16;4933132;28;97535;-71
2021/11/21 03:47:48;;;;;;;1999.90;999.90;;;;;;;3.49;58.08;100574.72;4925609;28;98825;-71
2021/11/21 03:50:18;;;;;;;1999.90;999.90;;;;;;;3.50;57.90;100570.31;4911442;28;96938;-70
2021/11/21 03:52:47;;;;;;;1999.90;999.90;;;;;;;3.49;57.84;100568.53;4911397;28;97157;-70
2021/11/21 03:55:17;;;;;;;1999.90;999.90;;;;;;;3.50;57.92;100568.59;4908615;28;97802;-72
2021/11/21 03:57:45;;;;;;;1999.90;999.90;;;;;;;3.50;57.92;100573.88;4929931;28;98663;-68
2021/11/21 04:00:17;;;;;;;1999.90;999.90;;;;;;;3.49;57.93;100577.34;4929117;28;96922;-71
2021/11/21 04:02:47;;;;;;;1999.90;999.90;;;;;;;3.49;58.19;100572.06;4905039;28;97906;-70
2021/11/21 04:05:17;;;;;;;1999.90;999.90;;;;;;;3.50;58.05;100552.81;4907064;28;99308;-70
2021/11/21 04:07:45;;;;;;;1999.90;999.90;;;;;;;3.52;58.01;100553.78;4906212;28;99199;-72
2021/11/21 04:10:13;;;;;;;1999.90;999.90;;;;;;;3.54;57.89;100559.13;4932119;28;97915;-71
2021/11/21 04:12:42;;;;;;;1999.90;999.90;;;;;;;3.55;58.09;100553.03;4938844;28;96940;-70
2021/11/21 04:15:11;;;;;;;1999.90;999.90;;;;;;;3.54;58.07;100549.50;4912937;28;99513;-71
2021/11/21 04:17:39;;;;;;;1999.90;999.90;;;;;;;3.55;57.91;100547.78;4916105;28;99628;-71
2021/11/21 04:20:11;;;;;;;1999.90;999.90;;;;;;;3.56;57.86;100547.84;4936781;28;96814;-72
2021/11/21 04:22:40;;;;;;;1999.90;999.90;;;;;;;3.57;57.86;100547.00;4932650;28;97777;-71
2021/11/21 04:25:09;;;;;;;1999.90;999.90;;;;;;;3.59;57.84;100541.81;4929770;28;97616;-71
2021/11/21 04:27:38;;;;;;;1999.90;999.90;;;;;;;3.61;58.13;100543.69;4930352;28;99073;-73
2021/11/21 04:30:07;;;;;;;1999.90;999.90;;;;;;;3.62;57.95;100548.13;4934571;28;96766;-73
2021/11/21 04:32:37;;;;;;;1999.90;999.90;;;;;;;3.61;58.10;100546.31;4938211;28;97091;-73
2021/11/21 04:35:06;;;;;;;1999.90;999.90;;;;;;;3.62;58.03;100541.97;4932045;28;97471;-72
2021/11/21 04:37:36;;;;;;;1999.90;999.90;;;;;;;3.59;58.11;100537.44;4914673;28;99868;-72
2021/11/21 04:40:07;;;;;;;1999.90;999.90;;;;;;;3.59;58.26;100529.56;4896834;28;97343;-72
2021/11/21 04:42:35;;;;;;;1999.90;999.90;;;;;;;3.58;57.96;100532.13;4933614;28;96977;-72
2021/11/21 04:45:04;;;;;;;1999.90;999.90;;;;;;;3.59;58.19;100526.03;4931217;28;97720;-73
2021/11/21 04:47:33;;;;;;;1999.90;999.90;;;;;;;3.58;58.29;100529.50;4928720;28;97619;-71
2021/11/21 04:50:01;;;;;;;1999.90;999.90;;;;;;;3.57;58.26;100531.22;4932038;28;97752;-73
2021/11/21 04:52:29;;;;;;;1999.90;999.90;;;;;;;3.55;58.17;100532.88;4915170;28;96943;-72
2021/11/21 04:54:59;;;;;;;1999.90;999.90;;;;;;;3.55;58.21;100529.38;4919781;28;100676;-73
2021/11/21 04:57:27;;;;;;;1999.90;999.90;;;;;;;3.54;58.27;100524.91;4912550;28;100401;-72
2021/11/21 04:59:55;;;;;;;1999.90;999.90;;;;;;;3.56;58.28;100529.44;4925026;28;96903;-71
2021/11/21 05:02:23;;;;;;;1999.90;999.90;;;;;;;3.56;57.99;100526.81;4928956;28;96996;-72
2021/11/21 05:04:51;;;;;;;1999.90;999.90;;;;;;;3.55;58.13;100529.38;4891682;28;99321;-74
2021/11/21 05:07:19;;;;;;;1999.90;999.90;;;;;;;3.55;57.97;100530.25;4933414;28;99187;-71
2021/11/21 05:09:47;;;;;;;1999.90;999.90;;;;;;;3.54;58.17;100528.47;4929193;28;98667;-71
2021/11/21 05:12:17;;;;;;;1999.90;999.90;;;;;;;3.53;58.31;100526.66;4910477;28;96826;-71
2021/11/21 05:14:45;;;;;;;1999.90;999.90;;;;;;;3.52;58.53;100523.94;4915657;28;97665;-71
2021/11/21 05:17:13;;;;;;;1999.90;999.90;;;;;;;3.54;58.41;100519.66;4933767;28;97898;-72
2021/11/21 05:19:41;;;;;;;1999.90;999.90;;;;;;;3.52;58.53;100518.69;4930785;28;97618;-70
2021/11/21 05:22:09;;;;;;;1999.90;999.90;;;;;;;3.52;58.72;100523.94;4935865;28;96793;-71
2021/11/21 05:24:38;;;;;;;1999.90;999.90;;;;;;;3.50;58.74;100516.00;4929025;28;99385;-71
2021/11/21 05:27:06;;;;;;;1999.90;999.90;;;;;;;3.52;58.57;100514.34;4929385;28;97252;-72
2021/11/21 05:29:35;;;;;;;1999.90;999.90;;;;;;;3.52;58.36;100519.59;4916660;28;96821;-70
2021/11/21 05:32:04;;;;;;;1999.90;999.90;;;;;;;3.51;58.28;100512.56;4935357;28;97295;-72
2021/11/21 05:34:33;;;;;;;1999.90;999.90;;;;;;;3.51;58.42;100512.56;4933299;28;97839;-72
2021/11/21 05:37:01;;;;;;;1999.90;999.90;;;;;;;3.53;58.56;100515.25;4929315;28;97833;-71
2021/11/21 05:39:29;;;;;;;1999.90;999.90;;;;;;;3.54;58.56;100509.13;4928513;28;98113;-71
2021/11/21 05:41:57;;;;;;;1999.90;999.90;;;;;;;3.56;58.44;100518.00;4909991;28;97316;-72
2021/11/21 05:44:26;;;;;;;1999.90;999.90;;;;;;;3.53;58.57;100504.72;4931560;28;97948;-72
2021/11/21 05:46:56;;;;;;;1999.90;999.90;;;;;;;3.52;58.88;100506.44;4913743;28;99385;-72
2021/11/21 05:49:24;;;;;;;1999.90;999.90;;;;;;;3.51;58.79;100509.91;4931277;28;97124;-70
2021/11/21 05:51:52;;;;;;;1999.90;999.90;;;;;;;3.52;59.05;100513.44;4930896;28;97182;-70
2021/11/21 05:54:20;;;;;;;1999.90;999.90;;;;;;;3.49;58.99;100508.94;4918514;28;99906;-71
2021/11/21 05:56:48;;;;;;;1999.90;999.90;;;;;;;3.49;59.24;100513.31;4912390;28;101318;-71
2021/11/21 05:59:16;;;;;;;1999.90;999.90;;;;;;;3.50;58.73;100505.47;4914190;28;97091;-71
2021/11/21 06:01:44;;;;;;;1999.90;999.90;;;;;;;3.50;59.17;100516.00;4907458;28;96924;-71
2021/11/21 06:04:14;;;;;;;1999.90;999.90;;;;;;;3.49;58.88;100505.41;4912490;28;98591;-72
2021/11/21 06:06:43;;;;;;;1999.90;999.90;;;;;;;3.50;59.27;100510.75;4925999;28;101393;-73
2021/11/21 06:09:11;;;;;;;1999.90;999.90;;;;;;;3.51;59.19;100511.66;4929973;28;98025;-71
2021/11/21 06:11:39;;;;;;;1999.90;999.90;;;;;;;3.51;59.34;100512.56;4929700;28;96943;-70
2021/11/21 06:14:07;;;;;;;1999.90;999.90;;;;;;;3.50;59.03;100505.47;4912294;28;100757;-71
2021/11/21 06:16:36;;;;;;;1999.90;999.90;;;;;;;3.51;59.12;100509.00;4914319;28;99645;-70
2021/11/21 06:19:04;;;;;;;1999.90;999.90;;;;;;;3.49;59.03;100495.81;4927597;28;97309;-69
2021/11/21 06:21:35;;;;;;;1999.90;999.90;;;;;;;3.50;59.44;100497.59;4906495;28;97560;-71
2021/11/21 06:24:04;;;;;;;1999.90;999.90;;;;;;;3.51;59.41;100496.78;4912526;28;101336;-71
2021/11/21 06:26:32;;;;;;;1999.90;999.90;;;;;;;3.55;59.29;100500.44;4929970;28;97676;-74
2021/11/21 06:29:00;;;;;;;1999.90;999.90;;;;;;;3.53;59.46;100497.72;4935075;28;98776;-72
2021/11/21 06:31:29;;;;;;;1999.90;999.90;;;;;;;3.53;59.43;100496.84;4912169;28;97065;-72
2021/11/21 06:33:57;;;;;;;1999.90;999.90;;;;;;;3.51;59.52;100491.50;4937786;28;97247;-72
2021/11/21 06:36:26;;;;;;;1999.90;999.90;;;;;;;3.53;59.31;100495.06;4915629;28;97950;-71
2021/11/21 06:38:56;;;;;;;1999.90;999.90;;;;;;;3.54;59.26;100488.09;4928961;28;97326;-70
2021/11/21 06:41:24;;;;;;;1999.90;999.90;;;;;;;3.55;59.36;100493.41;4901856;28;96801;-71
2021/11/21 06:43:53;;;;;;;1999.90;999.90;;;;;;;3.56;59.42;100494.31;4912024;28;99925;-72
2021/11/21 06:46:21;;;;;;;1999.90;999.90;;;;;;;3.57;59.15;100494.38;4924748;28;97104;-70
2021/11/21 06:48:50;;;;;;;1999.90;999.90;;;;;;;3.57;59.45;100493.50;4911911;28;97286;-72
2021/11/21 06:51:18;;;;;;;1999.90;999.90;;;;;;;3.55;59.18;100492.53;4929824;28;97387;-70
2021/11/21 06:53:47;;;;;;;1999.90;999.90;;;;;;;3.56;59.17;100495.22;4910991;28;97898;-71
2021/11/21 06:56:17;;;;;;;1999.90;999.90;;;;;;;3.54;59.53;100491.63;4926100;28;98901;-72
2021/11/21 06:58:46;;;;;;;1999.90;999.90;;;;;;;3.54;59.57;100489.00;4910913;28;96969;-72
2021/11/21 07:01:14;;;;;;;1999.90;999.90;;;;;;;3.51;59.60;100488.88;4912477;28;97613;-72
2021/11/21 07:03:43;;;;;;;1999.90;999.90;;;;;;;3.53;59.29;100484.56;4908599;28;99777;-71
2021/11/21 07:06:29;;;;;;;1999.90;999.90;;;;;;;3.52;59.59;100484.50;4928070;28;98488;-73
2021/11/21 07:08:57;;;;;;;1999.90;999.90;;;;;;;3.54;59.57;100486.38;4906201;28;97245;-72
2021/11/21 07:11:27;;;;;;;1999.90;999.90;;;;;;;3.53;59.64;100481.94;4925545;28;98448;-71
2021/11/21 07:13:55;;;;;;;1999.90;999.90;;;;;;;3.55;59.66;100479.41;4920854;28;100544;-70
2021/11/21 07:16:24;;;;;;;1999.90;999.90;;;;;;;3.56;59.59;100474.19;4923959;28;98924;-72
2021/11/21 07:18:52;;;;;;;1999.90;999.90;;;;;;;3.58;59.47;100469.91;4921416;28;96871;-71
2021/11/21 07:21:20;;;;;;;1999.90;999.90;;;;;;;3.59;59.58;100469.06;4921640;28;97525;-71
2021/11/21 07:23:49;;;;;;;1999.90;999.90;;;;;;;3.59;59.36;100474.31;4903827;28;99803;-71
2021/11/21 07:26:17;;;;;;;1999.90;999.90;;;;;;;3.61;59.67;100483.19;4906552;28;100566;-72
2021/11/21 07:28:47;;;;;;;1999.90;999.90;;;;;;;3.62;59.54;100474.47;4902984;28;97404;-71
2021/11/21 07:31:15;;;;;;;1999.90;999.90;;;;;;;3.65;59.31;100476.34;4923189;28;97436;-71
2021/11/21 07:33:43;;;;;;;1999.90;999.90;;;;;;;3.63;59.54;100471.00;4917043;28;98038;-71
2021/11/21 07:36:11;;;;;;;1999.90;999.90;;;;;;;3.65;59.52;100471.09;4907813;28;99450;-73
2021/11/21 07:38:41;;;;;;;1999.90;999.90;;;;;;;3.61;60.13;100477.91;4920028;28;97824;-71
2021/11/21 07:41:09;;;;;;;1999.90;999.90;;;;;;;3.64;59.50;100483.31;4906097;28;97995;-72
2021/11/21 07:43:38;;;;;;;1999.90;999.90;;;;;;;3.66;59.73;100483.44;4896198;28;99400;-71
2021/11/21 07:46:07;;;;;;;1999.90;999.90;;;;;;;3.64;59.42;100469.28;4904179;28;98639;-71
2021/11/21 07:48:36;;;;;;;1999.90;999.90;;;;;;;3.64;59.37;100482.44;4928330;28;97800;-72
2021/11/21 07:51:05;;;;;;;1999.90;999.90;;;;;;;3.61;59.52;100471.75;4922942;28;97757;-71
2021/11/21 07:53:33;;;;;;;1999.90;999.90;;;;;;;3.57;59.62;100478.59;4928521;28;99105;-72
2021/11/21 07:56:01;;;;;;;1999.90;999.90;;;;;;;3.56;59.48;100476.81;4919802;28;101216;-73
2021/11/21 07:58:30;;;;;;;1999.90;999.90;;;;;;;3.55;59.85;100476.75;4934289;28;97402;-72
2021/11/21 08:01:03;;;;;;;1999.90;999.90;;;;;;;3.53;59.82;100478.41;4913818;28;96863;-72
2021/11/21 08:03:33;;;;;;;1999.90;999.90;;;;;;;3.49;60.02;100476.47;4927242;28;100175;-73
2021/11/21 08:06:01;;;;;;;1999.90;999.90;;;;;;;3.50;59.72;100483.53;4914849;28;100793;-72
2021/11/21 08:08:30;;;;;;;1999.90;999.90;;;;;;;3.47;59.58;100471.16;4923392;28;97917;-72
2021/11/21 08:10:58;;;;;;;1999.90;999.90;;;;;;;3.46;60.12;100477.22;4930724;28;97357;-71
2021/11/21 08:13:27;;;;;;;1999.90;999.90;;;;;;;3.47;59.91;100472.88;4934701;28;98043;-73
2021/11/21 08:15:55;;;;;;;1999.90;999.90;;;;;;;3.44;59.92;100478.88;4923289;28;99347;-73
2021/11/21 08:18:23;;;;;;;1999.90;999.90;;;;;;;3.41;59.98;100484.03;4935471;28;99899;-73
2021/11/21 08:20:54;;;;;;;1999.90;999.90;;;;;;;3.42;59.92;100482.31;4936681;28;97095;-73
2021/11/21 08:23:23;;;;;;;1999.90;999.90;;;;;;;3.41;60.19;100483.13;4936716;28;97220;-73
2021/11/21 08:25:51;;;;;;;1999.90;999.90;;;;;;;3.43;60.03;100487.63;4922629;28;99330;-73
2021/11/21 08:28:19;;;;;;;1999.90;999.90;;;;;;;3.42;60.06;100475.31;4930011;28;96849;-71
2021/11/21 08:30:47;;;;;;;1999.90;999.90;;;;;;;3.43;59.91;100481.47;4926498;28;99377;-71
2021/11/21 08:33:16;;;;;;;1999.90;999.90;;;;;;;3.44;59.76;100484.16;4926197;28;98848;-73
2021/11/21 08:35:45;;;;;;;1999.90;999.90;;;;;;;3.44;59.78;100478.88;4924298;28;98173;-72
2021/11/21 08:38:14;;;;;;;1999.90;999.90;;;;;;;3.43;59.88;100479.72;4927298;28;98101;-71
2021/11/21 08:40:42;;;;;;;1999.90;999.90;;;;;;;3.44;59.95;100484.16;4928000;28;97219;-73
2021/11/21 08:43:10;;;;;;;1999.90;999.90;;;;;;;3.44;60.02;100485.91;4912298;28;98687;-74
2021/11/21 08:45:38;;;;;;;1999.90;999.90;;;;;;;3.44;60.23;100480.63;4936105;28;98243;-73
2021/11/21 08:48:07;;;;;;;1999.90;999.90;;;;;;;3.45;60.14;100488.59;4932499;28;96748;-72
2021/11/21 08:50:35;;;;;;;1999.90;999.90;;;;;;;3.44;60.35;100481.50;4909102;28;97937;-72
2021/11/21 08:53:03;;;;;;;1999.90;999.90;;;;;;;3.44;60.41;100478.00;4926938;28;97872;-70
2021/11/21 08:55:33;;;;;;;1999.90;999.90;;;;;;;3.45;60.17;100485.97;4909593;28;101133;-71
2021/11/21 08:58:03;;;;;;;1999.90;999.90;;;;;;;3.45;60.14;100485.06;4926417;28;96903;-72
2021/11/21 09:00:31;;;;;;;1999.90;999.90;;;;;;;3.46;60.30;100487.75;4908524;28;98703;-74
2021/11/21 09:02:59;;;;;;;1999.90;999.90;;;;;;;3.50;60.14;100486.16;4909240;28;100462;-74
2021/11/21 09:05:27;;;;;;;1999.90;999.90;;;;;;;3.52;60.14;100482.78;4934489;28;98160;-72
2021/11/21 09:08:12;;;;;;;1999.90;999.90;;;;;;;3.57;59.92;100489.13;4924156;28;97366;-73
2021/11/21 09:10:41;;;;;;;1999.90;999.90;;;;;;;3.59;60.02;100490.09;4925483;28;97258;-73
2021/11/21 09:13:09;;;;;;;1999.90;999.90;;;;;;;3.59;60.17;100494.44;4929949;28;98917;-73
2021/11/21 09:15:38;;;;;;;1999.90;999.90;;;;;;;3.62;60.14;100492.88;4906603;28;99412;-74
2021/11/21 09:18:06;;;;;;;1999.90;999.90;;;;;;;3.64;59.80;100492.94;4909160;28;97825;-72
2021/11/21 09:20:34;;;;;;;1999.90;999.90;;;;;;;3.65;60.33;100493.03;4913658;28;97853;-71
2021/11/21 09:23:10;;;;;;;1999.90;999.90;;;;;;;3.66;59.88;100493.94;4924040;28;97758;-73
2021/11/21 09:25:38;;;;;;;1999.90;999.90;;;;;;;3.65;60.36;100500.03;4918206;28;99434;-72
2021/11/21 09:28:08;;;;;;;1999.90;999.90;;;;;;;3.62;60.24;100491.97;4925055;28;96939;-69
2021/11/21 09:30:36;;;;;;;1999.90;999.90;;;;;;;3.64;60.25;100493.81;4909052;28;97494;-73
2021/11/21 09:33:10;;;;;;;1999.90;999.90;;;;;;;3.67;60.16;100495.75;4932160;28;98879;-72
2021/11/21 09:35:38;;;;;;;1999.90;999.90;;;;;;;3.69;60.03;100502.88;4928417;28;97873;-72
2021/11/21 09:38:08;;;;;;;1999.90;999.90;;;;;;;3.71;60.00;100501.22;4923301;28;98145;-71
2021/11/21 09:40:36;;;;;;;1999.90;999.90;;;;;;;3.75;59.78;100507.50;4925701;28;97548;-71
2021/11/21 09:43:04;;;;;;;1999.90;999.90;;;;;;;3.72;60.45;100502.09;4887900;28;100398;-69
2021/11/21 09:45:34;;;;;;;1999.90;999.90;;;;;;;3.73;60.06;100502.16;4919870;28;97818;-71
2021/11/21 09:48:08;;;;;;;1999.90;999.90;;;;;;;3.69;60.38;100497.63;4919789;28;98338;-71
2021/11/21 09:50:39;;;;;;;1999.90;999.90;;;;;;;3.68;60.62;100495.81;4904023;28;97113;-71
2021/11/21 09:53:08;;;;;;;1999.90;999.90;;;;;;;3.70;60.39;100491.50;4904416;28;100682;-70
2021/11/21 09:55:37;;;;;;;1999.90;999.90;;;;;;;3.73;60.23;100496.91;4918958;28;98656;-71
2021/11/21 09:58:06;;;;;;;1999.90;999.90;;;;;;;3.72;60.47;100481.94;4922771;28;98155;-71
2021/11/21 10:00:36;;;;;;;1999.90;999.90;;;;;;;3.71;60.46;100492.41;4905197;28;98119;-72
2021/11/21 10:03:06;;;;;;;1999.90;999.90;;;;;;;3.72;60.73;100481.03;4905609;28;98497;-71
2021/11/21 10:05:36;;;;;;;1999.90;999.90;;;;;;;3.72;60.81;100487.22;4904592;28;100389;-72
2021/11/21 10:08:06;;;;;;;1999.90;999.90;;;;;;;3.72;60.68;100487.22;4922447;28;98673;-72
2021/11/21 10:10:37;;;;;;;1999.90;999.90;;;;;;;3.74;60.37;100484.66;4923038;28;97815;-72
2021/11/21 10:13:06;;;;;;;1999.90;999.90;;;;;;;3.72;60.53;100481.03;4923119;28;97791;-72
2021/11/21 10:15:35;;;;;;;1999.90;999.90;;;;;;;3.72;60.64;100487.22;4922307;28;98795;-71
2021/11/21 10:18:03;;;;;;;1999.90;999.90;;;;;;;3.72;60.64;100479.31;4903492;28;98957;-71
2021/11/21 10:20:32;;;;;;;1999.90;999.90;;;;;;;3.71;60.65;100480.16;4921410;28;98033;-70
2021/11/21 10:23:03;;;;;;;1999.90;999.90;;;;;;;3.68;60.90;100472.13;4922099;28;97848;-73
2021/11/21 10:25:43;;;;;;;1999.90;999.90;;;;;;;3.68;60.96;100474.75;4922282;28;98412;-72
2021/11/21 10:28:15;;;;;;;1999.90;999.90;;;;;;;3.73;60.88;100477.59;4903760;28;98769;-73
2021/11/21 10:31:01;;;;;;;1999.90;999.90;;;;;;;3.74;60.94;100484.66;4905434;28;97025;-72
2021/11/21 10:33:32;;;;;;;1999.90;999.90;;;;;;;3.74;60.70;100479.38;4902111;28;100452;-72
2021/11/21 10:36:01;;;;;;;1999.90;999.90;;;;;;;3.74;60.80;100480.28;4904726;28;97723;-72
2021/11/21 10:38:36;;;;;;;1999.90;999.90;;;;;;;3.72;60.74;100475.78;4922844;28;97878;-72
2021/11/21 10:41:10;;;;;;;1999.90;999.90;;;;;;;3.71;61.14;100474.91;4904228;28;98605;-72
2021/11/21 10:43:43;;;;;;;1999.90;999.90;;;;;;;3.72;60.97;100478.41;4923318;28;97698;-72
2021/11/21 10:46:36;;;;;;;1999.90;999.90;;;;;;;3.71;61.73;100472.28;4922071;28;99271;-71
2021/11/21 10:49:33;;;;;;;1999.90;999.90;;;;;;;3.73;61.22;100472.34;4901929;28;97782;-71
2021/11/21 10:52:14;;;;;;;1999.90;999.90;;;;;;;3.78;61.12;100469.06;4920509;28;97244;-71
2021/11/21 10:54:47;;;;;;;1999.90;999.90;;;;;;;3.79;61.18;100468.22;4917158;28;98867;-70
2021/11/21 10:57:18;;;;;;;1999.90;999.90;;;;;;;3.77;61.30;100467.25;4900522;28;97585;-71
2021/11/21 10:59:49;;;;;;;1999.90;999.90;;;;;;;3.79;61.04;100473.50;4919526;28;96793;-72
2021/11/21 11:02:22;;;;;;;1999.90;999.90;;;;;;;3.82;61.27;100476.28;4921550;28;97443;-71
2021/11/21 11:05:02;;;;;;;1999.90;999.90;;;;;;;3.84;61.46;100471.06;4921838;28;98917;-71